createdAt,value
2019-05-12T00:00:07.966Z,0.00
2019-05-12T00:01:09.132Z,0.00
2019-05-12T00:02:07.704Z,0.00
2019-05-12T00:03:08.473Z,0.00
2019-05-12T00:04:08.249Z,0.00
2019-05-12T00:05:08.708Z,0.00
2019-05-12T00:06:08.762Z,0.00
2019-05-12T00:07:08.734Z,0.00
2019-05-12T00:08:08.271Z,0.00
2019-05-12T00:09:08.397Z,0.00
2019-05-12T00:10:08.616Z,0.00
2019-05-12T00:11:08.793Z,0.00
2019-05-12T00:12:08.253Z,0.00
2019-05-12T00:13:08.387Z,0.00
2019-05-12T00:14:08.609Z,0.00
2019-05-12T00:15:08.171Z,0.00
2019-05-12T00:16:08.700Z,0.00
2019-05-12T00:17:08.188Z,0.00
2019-05-12T00:18:08.861Z,0.00
2019-05-12T00:19:09.089Z,0.00
2019-05-12T00:20:08.494Z,0.00
2019-05-12T00:21:08.663Z,0.00
2019-05-12T00:22:07.689Z,0.00
2019-05-12T00:23:23.412Z,0.00
2019-05-12T00:24:08.032Z,0.00
2019-05-12T00:25:08.635Z,0.00
2019-05-12T00:26:07.982Z,0.00
2019-05-12T00:27:08.435Z,0.00
2019-05-12T00:28:07.826Z,0.00
2019-05-12T00:29:07.674Z,0.00
2019-05-12T00:30:09.971Z,0.00
2019-05-12T00:31:08.408Z,0.00
2019-05-12T00:32:08.466Z,0.00
2019-05-12T00:33:08.928Z,0.00
2019-05-12T00:34:07.783Z,0.00
2019-05-12T00:35:07.813Z,0.00
2019-05-12T00:36:08.065Z,0.00
2019-05-12T00:37:08.334Z,0.00
2019-05-12T00:38:08.677Z,0.00
2019-05-12T00:39:08.569Z,0.00
2019-05-12T00:40:08.213Z,0.00
2019-05-12T00:41:08.640Z,0.00
2019-05-12T00:42:07.831Z,0.00
2019-05-12T00:43:08.444Z,0.00
2019-05-12T00:44:08.206Z,0.00
2019-05-12T00:45:08.114Z,0.00
2019-05-12T00:46:07.925Z,0.00
2019-05-12T00:47:08.137Z,0.00
2019-05-12T00:48:08.747Z,0.00
2019-05-12T00:49:08.047Z,0.00
2019-05-12T00:50:08.011Z,0.00
2019-05-12T00:51:07.749Z,0.00
2019-05-12T00:52:08.056Z,0.00
2019-05-12T00:53:08.623Z,0.00
2019-05-12T00:54:08.871Z,0.00
2019-05-12T00:55:07.908Z,0.00
2019-05-12T00:56:08.333Z,0.00
2019-05-12T00:57:07.743Z,0.00
2019-05-12T00:58:08.297Z,0.00
2019-05-12T00:59:08.280Z,0.00
2019-05-12T01:00:08.221Z,0.00
2019-05-12T01:01:08.135Z,0.00
2019-05-12T01:02:07.946Z,0.00
2019-05-12T01:03:08.421Z,0.00
2019-05-12T01:04:08.527Z,0.00
2019-05-12T01:05:08.396Z,0.00
2019-05-12T01:06:08.311Z,0.00
2019-05-12T01:07:08.521Z,0.00
2019-05-12T01:08:08.492Z,0.00
2019-05-12T01:09:08.560Z,0.00
2019-05-12T01:10:08.454Z,0.00
2019-05-12T01:11:08.646Z,0.00
2019-05-12T01:12:07.943Z,0.00
2019-05-12T01:13:08.275Z,0.00
2019-05-12T01:14:08.323Z,0.00
2019-05-12T01:15:07.507Z,0.00
2019-05-12T01:16:07.943Z,0.00
2019-05-12T01:17:08.278Z,0.00
2019-05-12T01:18:05.979Z,0.00
2019-05-12T01:19:07.990Z,0.00
2019-05-12T01:20:05.936Z,0.00
2019-05-12T01:21:07.764Z,0.00
2019-05-12T01:22:08.101Z,0.00
2019-05-12T01:23:08.241Z,0.00
2019-05-12T01:24:08.328Z,0.00
2019-05-12T01:25:08.357Z,0.00
2019-05-12T01:26:05.871Z,0.00
2019-05-12T01:27:05.856Z,0.00
2019-05-12T01:28:07.926Z,0.00
2019-05-12T01:29:08.240Z,0.00
2019-05-12T01:30:05.830Z,0.00
2019-05-12T01:31:05.816Z,0.00
2019-05-12T01:32:07.952Z,0.00
2019-05-12T01:33:08.259Z,0.00
2019-05-12T01:34:07.959Z,0.00
2019-05-12T01:35:07.950Z,0.00
2019-05-12T01:36:07.984Z,0.00
2019-05-12T01:37:07.876Z,0.00
2019-05-12T01:38:07.797Z,0.00
2019-05-12T01:39:08.187Z,0.00
2019-05-12T01:40:08.500Z,0.00
2019-05-12T01:41:05.759Z,0.00
2019-05-12T01:42:05.726Z,0.00
2019-05-12T01:43:08.248Z,0.00
2019-05-12T01:44:05.670Z,0.00
2019-05-12T01:45:05.659Z,0.00
2019-05-12T01:46:07.894Z,0.00
2019-05-12T01:47:08.244Z,0.00
2019-05-12T01:48:08.327Z,0.00
2019-05-12T01:49:07.983Z,0.00
2019-05-12T01:50:05.605Z,0.00
2019-05-12T01:51:05.597Z,0.00
2019-05-12T01:52:05.587Z,0.00
2019-05-12T01:53:07.887Z,0.00
2019-05-12T01:54:11.667Z,0.00
2019-05-12T01:55:08.175Z,0.00
2019-05-12T01:56:07.719Z,0.00
2019-05-12T01:57:07.967Z,0.00
2019-05-12T01:58:05.519Z,0.00
2019-05-12T01:59:07.932Z,0.00
2019-05-12T02:00:07.926Z,0.00
2019-05-12T02:01:05.489Z,0.00
2019-05-12T02:02:05.479Z,0.00
2019-05-12T02:03:05.468Z,0.00
2019-05-12T02:04:07.588Z,0.00
2019-05-12T02:05:08.233Z,0.00
2019-05-12T02:06:05.450Z,0.00
2019-05-12T02:07:05.422Z,0.00
2019-05-12T02:08:05.414Z,0.00
2019-05-12T02:09:05.399Z,0.00
2019-05-12T02:10:05.388Z,0.00
2019-05-12T02:11:07.854Z,0.00
2019-05-12T02:12:05.376Z,0.00
2019-05-12T02:13:07.729Z,0.00
2019-05-12T02:14:05.351Z,0.00
2019-05-12T02:15:07.995Z,0.00
2019-05-12T02:16:05.327Z,0.00
2019-05-12T02:17:05.381Z,0.00
2019-05-12T02:18:05.314Z,0.00
2019-05-12T02:19:05.291Z,0.00
2019-05-12T02:20:07.613Z,0.00
2019-05-12T02:21:05.267Z,0.00
2019-05-12T02:22:05.266Z,0.00
2019-05-12T02:23:05.314Z,0.00
2019-05-12T02:24:07.596Z,0.00
2019-05-12T02:25:07.925Z,0.00
2019-05-12T02:26:05.216Z,0.00
2019-05-12T02:27:05.206Z,0.00
2019-05-12T02:28:05.200Z,0.00
2019-05-12T02:29:07.703Z,0.00
2019-05-12T02:30:09.293Z,0.00
2019-05-12T02:31:05.162Z,0.00
2019-05-12T02:32:05.151Z,0.00
2019-05-12T02:33:05.429Z,0.00
2019-05-12T02:34:05.783Z,0.00
2019-05-12T02:35:05.871Z,0.00
2019-05-12T02:36:05.124Z,0.00
2019-05-12T02:37:05.536Z,0.00
2019-05-12T02:38:05.498Z,0.00
2019-05-12T02:39:05.441Z,0.00
2019-05-12T02:40:05.082Z,0.00
2019-05-12T02:41:05.096Z,0.00
2019-05-12T02:42:05.311Z,0.00
2019-05-12T02:43:05.776Z,0.00
2019-05-12T02:44:05.526Z,0.00
2019-05-12T02:45:05.690Z,0.00
2019-05-12T02:46:05.063Z,0.00
2019-05-12T02:47:05.320Z,0.00
2019-05-12T02:48:05.609Z,0.00
2019-05-12T02:49:05.271Z,0.00
2019-05-12T02:50:05.459Z,0.00
2019-05-12T02:51:05.699Z,0.00
2019-05-12T02:52:05.229Z,0.00
2019-05-12T02:53:05.411Z,0.00
2019-05-12T02:54:05.454Z,0.00
2019-05-12T02:55:06.227Z,0.00
2019-05-12T02:56:05.205Z,0.00
2019-05-12T02:57:04.895Z,0.00
2019-05-12T02:58:05.787Z,0.00
2019-05-12T02:59:05.677Z,0.00
2019-05-12T03:00:05.312Z,0.00
2019-05-12T03:01:05.579Z,0.00
2019-05-12T03:02:05.405Z,0.00
2019-05-12T03:03:05.533Z,0.00
2019-05-12T03:04:05.904Z,0.00
2019-05-12T03:05:05.690Z,0.00
2019-05-12T03:06:05.640Z,0.00
2019-05-12T03:07:06.473Z,0.00
2019-05-12T03:08:05.199Z,0.00
2019-05-12T03:09:05.001Z,0.00
2019-05-12T03:10:05.210Z,0.00
2019-05-12T03:11:06.002Z,0.00
2019-05-12T03:12:05.955Z,0.00
2019-05-12T03:13:04.796Z,0.00
2019-05-12T03:14:04.704Z,4.00
2019-05-12T03:15:05.634Z,4.00
2019-05-12T03:16:05.224Z,4.00
2019-05-12T03:17:04.874Z,0.00
2019-05-12T03:18:06.367Z,4.00
2019-05-12T03:19:05.273Z,4.00
2019-05-12T03:20:05.127Z,4.00
2019-05-12T03:21:05.825Z,4.00
2019-05-12T03:22:05.165Z,4.00
2019-05-12T03:23:06.330Z,8.00
2019-05-12T03:24:06.099Z,8.00
2019-05-12T03:25:15.510Z,8.00
2019-05-12T03:26:05.566Z,12.00
2019-05-12T03:27:04.569Z,12.00
2019-05-12T03:28:08.273Z,12.00
2019-05-12T03:29:05.714Z,16.00
2019-05-12T03:30:10.091Z,16.00
2019-05-12T03:31:07.925Z,24.00
2019-05-12T03:32:08.240Z,24.00
2019-05-12T03:33:09.170Z,28.00
2019-05-12T03:34:09.137Z,28.00
2019-05-12T03:35:08.736Z,32.00
2019-05-12T03:36:09.088Z,36.00
2019-05-12T03:37:07.695Z,40.00
2019-05-12T03:38:04.558Z,48.00
2019-05-12T03:39:04.452Z,56.00
2019-05-12T03:40:05.491Z,64.00
2019-05-12T03:41:05.333Z,72.00
2019-05-12T03:42:05.265Z,80.00
2019-05-12T03:43:05.376Z,88.00
2019-05-12T03:44:05.322Z,100.00
2019-05-12T03:45:04.832Z,116.00
2019-05-12T03:46:05.415Z,128.00
2019-05-12T03:47:05.206Z,136.00
2019-05-12T03:48:04.490Z,152.00
2019-05-12T03:49:05.412Z,168.00
2019-05-12T03:50:04.791Z,184.00
2019-05-12T03:51:05.748Z,200.00
2019-05-12T03:52:05.183Z,216.00
2019-05-12T03:53:09.810Z,228.00
2019-05-12T03:54:05.497Z,244.00
2019-05-12T03:55:05.548Z,264.00
2019-05-12T03:56:04.556Z,288.00
2019-05-12T03:57:04.612Z,316.00
2019-05-12T03:58:04.612Z,348.00
2019-05-12T03:59:05.026Z,384.00
2019-05-12T04:00:05.138Z,416.00
2019-05-12T04:01:04.815Z,452.00
2019-05-12T04:02:04.925Z,484.00
2019-05-12T04:03:05.001Z,516.00
2019-05-12T04:04:05.131Z,552.00
2019-05-12T04:05:05.216Z,584.00
2019-05-12T04:06:04.845Z,604.00
2019-05-12T04:07:05.159Z,628.00
2019-05-12T04:08:05.561Z,652.00
2019-05-12T04:09:04.764Z,680.00
2019-05-12T04:10:05.169Z,712.00
2019-05-12T04:11:05.324Z,752.00
2019-05-12T04:12:05.255Z,808.00
2019-05-12T04:13:04.724Z,852.00
2019-05-12T04:14:05.506Z,892.00
2019-05-12T04:15:05.129Z,928.00
2019-05-12T04:16:05.020Z,952.00
2019-05-12T04:17:04.897Z,968.00
2019-05-12T04:18:05.715Z,976.00
2019-05-12T04:19:05.282Z,992.00
2019-05-12T04:20:04.921Z,1012.00
2019-05-12T04:21:05.449Z,1028.00
2019-05-12T04:22:05.472Z,1040.00
2019-05-12T04:23:05.811Z,1052.00
2019-05-12T04:24:05.462Z,1044.00
2019-05-12T04:25:06.082Z,1032.00
2019-05-12T04:26:10.998Z,1064.00
2019-05-12T04:27:05.439Z,1148.00
2019-05-12T04:28:04.786Z,1256.00
2019-05-12T04:29:05.087Z,1340.00
2019-05-12T04:30:05.452Z,1412.00
2019-05-12T04:31:05.477Z,1476.00
2019-05-12T04:32:05.077Z,1528.00
2019-05-12T04:33:04.932Z,1544.00
2019-05-12T04:34:05.175Z,1568.00
2019-05-12T04:35:04.805Z,1584.00
2019-05-12T04:36:05.562Z,1560.00
2019-05-12T04:37:04.573Z,1528.00
2019-05-12T04:38:04.570Z,1516.00
2019-05-12T04:39:04.367Z,1524.00
2019-05-12T04:40:05.469Z,1548.00
2019-05-12T04:41:05.798Z,1624.00
2019-05-12T04:42:05.319Z,1772.00
2019-05-12T04:43:05.907Z,1924.00
2019-05-12T04:44:05.831Z,2064.00
2019-05-12T04:45:04.585Z,2204.00
2019-05-12T04:46:05.095Z,2336.00
2019-05-12T04:47:05.548Z,2436.00
2019-05-12T04:48:05.154Z,2448.00
2019-05-12T04:49:05.248Z,2416.00
2019-05-12T04:50:05.393Z,2380.00
2019-05-12T04:51:05.033Z,2404.00
2019-05-12T04:52:05.312Z,2572.00
2019-05-12T04:53:06.033Z,2760.00
2019-05-12T04:54:05.751Z,2872.00
2019-05-12T04:55:04.692Z,2896.00
2019-05-12T04:56:15.287Z,2848.00
2019-05-12T04:57:04.650Z,2816.00
2019-05-12T04:58:04.432Z,2832.00
2019-05-12T04:59:04.927Z,2940.00
2019-05-12T05:00:05.116Z,3124.00
2019-05-12T05:01:06.355Z,3292.00
2019-05-12T05:02:05.495Z,3460.00
2019-05-12T05:03:05.075Z,3620.00
2019-05-12T05:04:05.417Z,3752.00
2019-05-12T05:05:05.379Z,3920.00
2019-05-12T05:06:04.472Z,4096.00
2019-05-12T05:07:04.503Z,4172.00
2019-05-12T05:08:04.411Z,4076.00
2019-05-12T05:09:05.054Z,3884.00
2019-05-12T05:10:04.699Z,3860.00
2019-05-12T05:11:04.137Z,3968.00
2019-05-12T05:12:04.570Z,4092.00
2019-05-12T05:13:05.142Z,4276.00
2019-05-12T05:14:04.242Z,4556.00
2019-05-12T05:15:05.376Z,4820.00
2019-05-12T05:16:05.384Z,4964.00
2019-05-12T05:17:05.566Z,5000.00
2019-05-12T05:18:06.399Z,4920.00
2019-05-12T05:19:03.731Z,4956.00
2019-05-12T05:20:04.068Z,5084.00
2019-05-12T05:21:04.682Z,5148.00
2019-05-12T05:22:04.333Z,5100.00
2019-05-12T05:23:03.753Z,5080.00
2019-05-12T05:24:03.914Z,5060.00
2019-05-12T05:25:04.267Z,5032.00
2019-05-12T05:26:03.408Z,4996.00
2019-05-12T05:27:04.429Z,4948.00
2019-05-12T05:28:03.938Z,4976.00
2019-05-12T05:29:04.290Z,5056.00
2019-05-12T05:30:03.942Z,5144.00
2019-05-12T05:31:03.649Z,5168.00
2019-05-12T05:32:03.582Z,5204.00
2019-05-12T05:33:04.479Z,5276.00
2019-05-12T05:34:04.697Z,5360.00
2019-05-12T05:35:04.648Z,5464.00
2019-05-12T05:36:03.569Z,5440.00
2019-05-12T05:37:05.053Z,5472.00
2019-05-12T05:38:04.454Z,5644.00
2019-05-12T05:39:04.318Z,5792.00
2019-05-12T05:40:03.983Z,5996.00
2019-05-12T05:41:05.945Z,6324.00
2019-05-12T05:42:04.627Z,6540.00
2019-05-12T05:43:12.246Z,6676.00
2019-05-12T05:44:04.130Z,6836.00
2019-05-12T05:45:04.912Z,6964.00
2019-05-12T05:46:07.909Z,7128.00
2019-05-12T05:47:04.434Z,7280.00
2019-05-12T05:48:07.426Z,7468.00
2019-05-12T05:49:04.286Z,7472.00
2019-05-12T05:50:04.777Z,7460.00
2019-05-12T05:51:05.647Z,7424.00
2019-05-12T05:52:03.983Z,7496.00
2019-05-12T05:53:03.859Z,7608.00
2019-05-12T05:54:03.944Z,7732.00
2019-05-12T05:55:05.767Z,7892.00
2019-05-12T05:56:04.164Z,7844.00
2019-05-12T05:57:06.012Z,7952.00
2019-05-12T05:58:07.787Z,8212.00
2019-05-12T05:59:04.773Z,8436.00
2019-05-12T06:00:07.263Z,8536.00
2019-05-12T06:01:07.943Z,8584.00
2019-05-12T06:02:04.940Z,8584.00
2019-05-12T06:03:05.251Z,8516.00
2019-05-12T06:04:04.329Z,8244.00
2019-05-12T06:05:04.518Z,7944.00
2019-05-12T06:06:10.395Z,7860.00
2019-05-12T06:07:04.180Z,8180.00
2019-05-12T06:08:04.206Z,8592.00
2019-05-12T06:09:03.735Z,8836.00
2019-05-12T06:10:04.071Z,8884.00
2019-05-12T06:11:04.816Z,8772.00
2019-05-12T06:12:05.215Z,8696.00
2019-05-12T06:13:04.207Z,8696.00
2019-05-12T06:14:11.015Z,8824.00
2019-05-12T06:15:04.205Z,9116.00
2019-05-12T06:16:04.378Z,9540.00
2019-05-12T06:17:04.295Z,9812.00
2019-05-12T06:18:03.601Z,9960.00
2019-05-12T06:19:03.490Z,10024.00
2019-05-12T06:20:04.373Z,10032.00
2019-05-12T06:21:03.473Z,10000.00
2019-05-12T06:22:03.951Z,10028.00
2019-05-12T06:23:04.283Z,10172.00
2019-05-12T06:24:03.486Z,10520.00
2019-05-12T06:25:04.938Z,10832.00
2019-05-12T06:26:04.391Z,11076.00
2019-05-12T06:27:14.303Z,11252.00
2019-05-12T06:28:04.550Z,11336.00
2019-05-12T06:29:04.430Z,11236.00
2019-05-12T06:30:05.946Z,11124.00
2019-05-12T06:31:04.239Z,11064.00
2019-05-12T06:32:06.205Z,11092.00
2019-05-12T06:33:04.202Z,11152.00
2019-05-12T06:34:07.957Z,11252.00
2019-05-12T06:35:04.527Z,11400.00
2019-05-12T06:36:04.447Z,11620.00
2019-05-12T06:37:11.628Z,11808.00
2019-05-12T06:38:05.092Z,11932.00
2019-05-12T06:39:04.362Z,11980.00
2019-05-12T06:40:03.586Z,12116.00
2019-05-12T06:41:03.604Z,12268.00
2019-05-12T06:42:12.330Z,12292.00
2019-05-12T06:43:04.305Z,12264.00
2019-05-12T06:44:03.750Z,12324.00
2019-05-12T06:45:03.770Z,12388.00
2019-05-12T06:46:03.656Z,12396.00
2019-05-12T06:47:07.079Z,12496.00
2019-05-12T06:48:03.500Z,12764.00
2019-05-12T06:49:11.984Z,13032.00
2019-05-12T06:50:03.870Z,13184.00
2019-05-12T06:51:04.042Z,13172.00
2019-05-12T06:52:06.873Z,13048.00
2019-05-12T06:53:04.711Z,12988.00
2019-05-12T06:54:07.425Z,13072.00
2019-05-12T06:55:03.989Z,13308.00
2019-05-12T06:56:04.384Z,13492.00
2019-05-12T06:57:18.607Z,13596.00
2019-05-12T06:58:04.731Z,13696.00
2019-05-12T06:59:09.923Z,13784.00
2019-05-12T07:00:04.603Z,13796.00
2019-05-12T07:01:10.163Z,13764.00
2019-05-12T07:02:03.458Z,13796.00
2019-05-12T07:03:03.924Z,13956.00
2019-05-12T07:04:06.800Z,14196.00
2019-05-12T07:05:04.362Z,14448.00
2019-05-12T07:06:04.087Z,14636.00
2019-05-12T07:07:03.615Z,14864.00
2019-05-12T07:08:04.154Z,15128.00
2019-05-12T07:09:09.060Z,15364.00
2019-05-12T07:10:11.856Z,15552.00
2019-05-12T07:11:05.948Z,15736.00
2019-05-12T07:12:06.649Z,15860.00
2019-05-12T07:13:05.602Z,15808.00
2019-05-12T07:14:08.022Z,15692.00
2019-05-12T07:15:03.819Z,15688.00
2019-05-12T07:16:03.744Z,15768.00
2019-05-12T07:17:05.683Z,15912.00
2019-05-12T07:18:04.045Z,15908.00
2019-05-12T07:19:07.609Z,15808.00
2019-05-12T07:20:03.992Z,15920.00
2019-05-12T07:21:04.012Z,16384.00
2019-05-12T07:22:03.583Z,16704.00
2019-05-12T07:23:03.979Z,16960.00
2019-05-12T07:24:06.633Z,16512.00
2019-05-12T07:25:04.543Z,15996.00
2019-05-12T07:26:04.776Z,15480.00
2019-05-12T07:27:08.761Z,15040.00
2019-05-12T07:28:07.571Z,14948.00
2019-05-12T07:29:04.450Z,15352.00
2019-05-12T07:30:01.931Z,15812.00
2019-05-12T07:31:03.797Z,16004.00
2019-05-12T07:32:07.278Z,15916.00
2019-05-12T07:33:04.522Z,15816.00
2019-05-12T07:34:05.281Z,15916.00
2019-05-12T07:35:03.909Z,16172.00
2019-05-12T07:36:06.208Z,15388.00
2019-05-12T07:37:04.253Z,15160.00
2019-05-12T07:38:04.246Z,14732.00
2019-05-12T07:39:06.226Z,15080.00
2019-05-12T07:40:04.854Z,15464.00
2019-05-12T07:41:08.833Z,15788.00
2019-05-12T07:42:03.657Z,15968.00
2019-05-12T07:43:03.757Z,15576.00
2019-05-12T07:44:03.553Z,14904.00
2019-05-12T07:45:03.795Z,15140.00
2019-05-12T07:46:03.169Z,17568.00
2019-05-12T07:47:03.636Z,17984.00
2019-05-12T07:48:05.730Z,16340.00
2019-05-12T07:49:03.942Z,16596.00
2019-05-12T07:50:04.312Z,16564.00
2019-05-12T07:51:03.998Z,16592.00
2019-05-12T07:52:03.654Z,19008.00
2019-05-12T07:53:04.025Z,18176.00
2019-05-12T07:54:03.880Z,16864.00
2019-05-12T07:55:04.123Z,16272.00
2019-05-12T07:56:03.957Z,16360.00
2019-05-12T07:57:05.374Z,16896.00
2019-05-12T07:58:10.208Z,17952.00
2019-05-12T07:59:04.380Z,18880.00
2019-05-12T08:00:03.640Z,21376.00
2019-05-12T08:01:02.728Z,21024.00
2019-05-12T08:02:03.749Z,17856.00
2019-05-12T08:03:08.030Z,16896.00
2019-05-12T08:04:04.568Z,17088.00
2019-05-12T08:05:03.894Z,17952.00
2019-05-12T08:06:04.043Z,19264.00
2019-05-12T08:07:03.748Z,20160.00
2019-05-12T08:08:08.717Z,20544.00
2019-05-12T08:09:04.173Z,20288.00
2019-05-12T08:10:07.204Z,19328.00
2019-05-12T08:11:04.405Z,18240.00
2019-05-12T08:12:03.475Z,17824.00
2019-05-12T08:13:01.436Z,18720.00
2019-05-12T08:14:03.490Z,18528.00
2019-05-12T08:15:07.739Z,19296.00
2019-05-12T08:16:03.692Z,19424.00
2019-05-12T08:17:10.456Z,19264.00
2019-05-12T08:18:07.489Z,18944.00
2019-05-12T08:19:03.967Z,18752.00
2019-05-12T08:20:01.365Z,18720.00
2019-05-12T08:21:03.602Z,18496.00
2019-05-12T08:22:01.341Z,19616.00
2019-05-12T08:23:05.734Z,18528.00
2019-05-12T08:24:03.751Z,18656.00
2019-05-12T08:25:01.312Z,16108.00
2019-05-12T08:26:03.763Z,16284.00
2019-05-12T08:27:06.210Z,17280.00
2019-05-12T08:28:12.423Z,18080.00
2019-05-12T08:29:04.266Z,18080.00
2019-05-12T08:30:03.011Z,17344.00
2019-05-12T08:31:03.461Z,17056.00
2019-05-12T08:32:03.648Z,18400.00
2019-05-12T08:33:03.820Z,16576.00
2019-05-12T08:34:04.195Z,17152.00
2019-05-12T08:35:01.236Z,14180.00
2019-05-12T08:36:03.131Z,15228.00
2019-05-12T08:37:04.156Z,14752.00
2019-05-12T08:38:03.640Z,15600.00
2019-05-12T08:39:03.836Z,17920.00
2019-05-12T08:40:04.044Z,16168.00
2019-05-12T08:41:04.282Z,17280.00
2019-05-12T08:42:01.111Z,18432.00
2019-05-12T08:43:08.203Z,18816.00
2019-05-12T08:44:04.443Z,19008.00
2019-05-12T08:45:03.885Z,18592.00
2019-05-12T08:46:06.998Z,17152.00
2019-05-12T08:47:03.954Z,15144.00
2019-05-12T08:48:03.683Z,13076.00
2019-05-12T08:49:03.043Z,12076.00
2019-05-12T08:50:01.033Z,12180.00
2019-05-12T08:51:05.239Z,12228.00
2019-05-12T08:52:03.895Z,12288.00
2019-05-12T08:53:01.042Z,12540.00
2019-05-12T08:54:03.191Z,13348.00
2019-05-12T08:55:04.096Z,15576.00
2019-05-12T08:56:05.025Z,17408.00
2019-05-12T08:57:03.834Z,18144.00
2019-05-12T08:58:00.959Z,19584.00
2019-05-12T08:59:00.961Z,20576.00
2019-05-12T09:00:03.299Z,24416.00
2019-05-12T09:01:04.255Z,25280.00
2019-05-12T09:02:05.753Z,25056.00
2019-05-12T09:03:03.576Z,23360.00
2019-05-12T09:04:06.685Z,19936.00
2019-05-12T09:05:04.433Z,19776.00
2019-05-12T09:06:00.847Z,19424.00
2019-05-12T09:07:00.922Z,20384.00
2019-05-12T09:08:00.824Z,16640.00
2019-05-12T09:09:00.855Z,15732.00
2019-05-12T09:10:00.794Z,15716.00
2019-05-12T09:11:00.829Z,15900.00
2019-05-12T09:12:00.784Z,15916.00
2019-05-12T09:13:00.768Z,16320.00
2019-05-12T09:14:02.936Z,16960.00
2019-05-12T09:15:00.754Z,17312.00
2019-05-12T09:16:00.733Z,17696.00
2019-05-12T09:17:03.950Z,17664.00
2019-05-12T09:18:04.384Z,17536.00
2019-05-12T09:19:00.716Z,17632.00
2019-05-12T09:20:06.056Z,17856.00
2019-05-12T09:21:03.837Z,18080.00
2019-05-12T09:22:05.500Z,18304.00
2019-05-12T09:23:02.774Z,18592.00
2019-05-12T09:24:00.645Z,19168.00
2019-05-12T09:25:06.347Z,19936.00
2019-05-12T09:26:03.710Z,20448.00
2019-05-12T09:27:06.903Z,20480.00
2019-05-12T09:28:03.572Z,20320.00
2019-05-12T09:29:00.632Z,20608.00
2019-05-12T09:30:07.672Z,21344.00
2019-05-12T09:31:03.572Z,22944.00
2019-05-12T09:32:05.332Z,23712.00
2019-05-12T09:33:03.738Z,25984.00
2019-05-12T09:34:05.914Z,23840.00
2019-05-12T09:35:03.786Z,23424.00
2019-05-12T09:36:00.650Z,23712.00
2019-05-12T09:37:01.118Z,22784.00
2019-05-12T09:38:02.981Z,21312.00
2019-05-12T09:39:02.959Z,20832.00
2019-05-12T09:40:00.484Z,20160.00
2019-05-12T09:41:01.380Z,19456.00
2019-05-12T09:42:00.452Z,18592.00
2019-05-12T09:43:08.632Z,18016.00
2019-05-12T09:44:02.458Z,17440.00
2019-05-12T09:45:08.132Z,16632.00
2019-05-12T09:46:03.794Z,15960.00
2019-05-12T09:47:00.476Z,15612.00
2019-05-12T09:48:04.902Z,14852.00
2019-05-12T09:49:01.400Z,13812.00
2019-05-12T09:50:00.369Z,12756.00
2019-05-12T09:51:01.998Z,12220.00
2019-05-12T09:52:00.461Z,12412.00
2019-05-12T09:53:00.713Z,14032.00
2019-05-12T09:54:01.351Z,15476.00
2019-05-12T09:55:00.312Z,16088.00
2019-05-12T09:56:00.289Z,16192.00
2019-05-12T09:57:00.279Z,16556.00
2019-05-12T09:58:00.312Z,14700.00
2019-05-12T09:59:02.702Z,15532.00
2019-05-12T10:00:01.255Z,18368.00
2019-05-12T10:01:00.244Z,19104.00
2019-05-12T10:02:00.232Z,17792.00
2019-05-12T10:03:00.842Z,19520.00
2019-05-12T10:04:00.247Z,19264.00
2019-05-12T10:05:00.909Z,21888.00
2019-05-12T10:06:00.179Z,23072.00
2019-05-12T10:07:00.166Z,22816.00
2019-05-12T10:08:00.159Z,22080.00
2019-05-12T10:09:00.156Z,21664.00
2019-05-12T10:10:00.336Z,18016.00
2019-05-12T10:11:00.128Z,16600.00
2019-05-12T10:12:01.168Z,15908.00
2019-05-12T10:13:00.097Z,15724.00
2019-05-12T10:14:05.172Z,18208.00
2019-05-12T10:15:01.120Z,18336.00
2019-05-12T10:16:07.399Z,18720.00
2019-05-12T10:17:03.425Z,19328.00
2019-05-12T10:18:05.298Z,19712.00
2019-05-12T10:19:01.031Z,20000.00
2019-05-12T10:20:00.025Z,20512.00
2019-05-12T10:21:00.051Z,21280.00
2019-05-12T10:22:00.016Z,22464.00
2019-05-12T10:22:59.989Z,23680.00
2019-05-12T10:24:02.087Z,24512.00
2019-05-12T10:25:00.066Z,22432.00
2019-05-12T10:26:01.542Z,20448.00
2019-05-12T10:27:03.559Z,19904.00
2019-05-12T10:28:05.318Z,20864.00
2019-05-12T10:29:14.128Z,22880.00
2019-05-12T10:30:05.580Z,20576.00
2019-05-12T10:31:00.920Z,21888.00
2019-05-12T10:31:59.896Z,23584.00
2019-05-12T10:32:59.936Z,24576.00
2019-05-12T10:33:59.873Z,23520.00
2019-05-12T10:34:59.861Z,22048.00
2019-05-12T10:36:06.836Z,20576.00
2019-05-12T10:37:00.845Z,19808.00
2019-05-12T10:38:00.235Z,20128.00
2019-05-12T10:39:00.851Z,20672.00
2019-05-12T10:39:59.809Z,21344.00
2019-05-12T10:40:59.800Z,21696.00
2019-05-12T10:41:59.786Z,22464.00
2019-05-12T10:42:59.776Z,23104.00
2019-05-12T10:43:59.774Z,23104.00
2019-05-12T10:44:59.790Z,22720.00
2019-05-12T10:45:59.740Z,26784.00
2019-05-12T10:46:59.731Z,22880.00
2019-05-12T10:47:59.717Z,27456.00
2019-05-12T10:48:59.713Z,27840.00
2019-05-12T10:49:59.706Z,30560.00
2019-05-12T10:50:59.729Z,29664.00
2019-05-12T10:51:59.673Z,21312.00
2019-05-12T10:52:59.669Z,19168.00
2019-05-12T10:54:07.723Z,27104.00
2019-05-12T10:55:00.641Z,33216.00
2019-05-12T10:55:59.637Z,32800.00
2019-05-12T10:56:59.681Z,21632.00
2019-05-12T10:58:01.803Z,25920.00
2019-05-12T10:59:00.603Z,32480.00
2019-05-12T10:59:59.591Z,34912.00
2019-05-12T11:01:05.290Z,35840.00
2019-05-12T11:02:00.607Z,36000.00
2019-05-12T11:03:01.463Z,37760.00
2019-05-12T11:04:00.560Z,24928.00
2019-05-12T11:04:59.550Z,38784.00
2019-05-12T11:06:02.528Z,38240.00
2019-05-12T11:07:00.510Z,22496.00
2019-05-12T11:08:00.295Z,22208.00
2019-05-12T11:09:00.491Z,25984.00
2019-05-12T11:10:05.170Z,21056.00
2019-05-12T11:11:01.376Z,20160.00
2019-05-12T11:11:59.491Z,20768.00
2019-05-12T11:13:59.553Z,22624.00
2019-05-12T11:15:06.299Z,28384.00
2019-05-12T11:16:00.412Z,42752.00
2019-05-12T11:17:02.107Z,42656.00
2019-05-12T11:18:00.404Z,40896.00
2019-05-12T11:19:00.238Z,22592.00
2019-05-12T11:20:00.483Z,21152.00
2019-05-12T11:20:59.568Z,21280.00
2019-05-12T11:22:03.503Z,22880.00
2019-05-12T11:23:00.335Z,40576.00
2019-05-12T11:23:59.333Z,27424.00
2019-05-12T11:24:59.313Z,26272.00
2019-05-12T11:25:59.389Z,22432.00
2019-05-12T11:26:59.322Z,26880.00
2019-05-12T11:27:59.279Z,25920.00
2019-05-12T11:28:59.267Z,44864.00
2019-05-12T11:29:59.260Z,26624.00
2019-05-12T11:30:59.245Z,25472.00
2019-05-12T11:31:59.299Z,27616.00
2019-05-12T11:32:59.764Z,44416.00
2019-05-12T11:33:59.212Z,27008.00
2019-05-12T11:34:59.397Z,27456.00
2019-05-12T11:35:59.262Z,50336.00
2019-05-12T11:36:59.192Z,27904.00
2019-05-12T11:37:59.233Z,30400.00
2019-05-12T11:38:59.155Z,23520.00
2019-05-12T11:39:59.215Z,21888.00
2019-05-12T11:40:59.136Z,21184.00
2019-05-12T11:41:59.131Z,21376.00
2019-05-12T11:43:01.126Z,21696.00
2019-05-12T11:43:59.130Z,30112.00
2019-05-12T11:44:59.094Z,52672.00
2019-05-12T11:45:59.085Z,53120.00
2019-05-12T11:46:59.070Z,53856.00
2019-05-12T11:48:05.179Z,53376.00
2019-05-12T11:49:00.419Z,33760.00
2019-05-12T11:50:05.203Z,36128.00
2019-05-12T11:51:00.025Z,61728.00
2019-05-12T11:52:01.049Z,63744.00
2019-05-12T11:53:00.015Z,53984.00
2019-05-12T11:54:03.598Z,25984.00
2019-05-12T11:55:00.032Z,25664.00
2019-05-12T11:56:02.365Z,26528.00
2019-05-12T11:56:59.978Z,26816.00
2019-05-12T11:58:00.250Z,66432.00
2019-05-12T11:58:59.946Z,31200.00
2019-05-12T12:00:02.017Z,69184.00
2019-05-12T12:01:06.401Z,30944.00
2019-05-12T12:01:59.996Z,49408.00
2019-05-12T12:03:03.767Z,63264.00
2019-05-12T12:03:59.884Z,24896.00
2019-05-12T12:04:58.874Z,21248.00
2019-05-12T12:05:58.864Z,20320.00
2019-05-12T12:06:59.053Z,20544.00
2019-05-12T12:07:58.852Z,62592.00
2019-05-12T12:08:58.831Z,66592.00
2019-05-12T12:09:59.586Z,60736.00
2019-05-12T12:10:58.813Z,67840.00
2019-05-12T12:12:05.564Z,68416.00
2019-05-12T12:12:59.983Z,51328.00
2019-05-12T12:14:00.312Z,20576.00
2019-05-12T12:14:59.770Z,18720.00
2019-05-12T12:16:00.670Z,18400.00